TimeCST,TemperatureF,Dew PointF,Humidity,Sea Level PressureIn,VisibilityMPH,Wind Direction,Wind SpeedMPH,Gust SpeedMPH,PrecipitationIn,Events,Conditions,WindDirDegrees,DateUTC
12:53 AM,66.0,61.0,84,29.97,10.0,South,5.8,-,N/A,,Overcast,170,2014-02-19 06:53:00
1:11 AM,66.2,60.8,83,29.98,10.0,South,6.9,-,N/A,,Overcast,170,2014-02-19 07:11:00
1:53 AM,64.9,61.0,87,29.98,10.0,South,6.9,-,N/A,,Overcast,190,2014-02-19 07:53:00
2:53 AM,64.9,60.1,84,29.97,10.0,South,3.5,-,N/A,,Overcast,170,2014-02-19 08:53:00
3:53 AM,63.0,60.1,90,29.96,9.0,East,3.5,-,N/A,,Mostly Cloudy,100,2014-02-19 09:53:00
4:53 AM,64.0,60.1,87,29.96,8.0,South,5.8,-,N/A,,Overcast,170,2014-02-19 10:53:00
5:53 AM,63.0,60.1,90,29.96,6.0,SE,3.5,-,N/A,,Overcast,140,2014-02-19 11:53:00
6:37 AM,62.6,59.0,88,29.97,6.0,SE,3.5,-,N/A,,Scattered Clouds,140,2014-02-19 12:37:00
6:53 AM,61.0,59.0,93,29.97,5.0,SE,3.5,-,N/A,,Clear,140,2014-02-19 12:53:00
7:04 AM,60.8,59.0,94,29.98,1.8,Calm,Calm,-,N/A,,Partly Cloudy,0,2014-02-19 13:04:00
7:17 AM,60.8,59.0,94,29.98,0.2,SE,3.5,-,N/A,Fog,Fog,130,2014-02-19 13:17:00
7:48 AM,62.6,59.0,88,29.98,0.8,SE,4.6,-,N/A,,Mostly Cloudy,130,2014-02-19 13:48:00
7:53 AM,63.0,60.1,90,29.97,1.5,SE,4.6,-,N/A,,Mostly Cloudy,140,2014-02-19 13:53:00
8:01 AM,62.6,60.8,94,29.98,2.0,SE,4.6,-,N/A,,Mostly Cloudy,140,2014-02-19 14:01:00
8:10 AM,64.4,60.8,88,29.98,2.5,SE,5.8,-,N/A,,Overcast,130,2014-02-19 14:10:00
8:21 AM,64.4,62.6,94,29.98,3.0,SE,5.8,-,N/A,,Mostly Cloudy,140,2014-02-19 14:21:00
8:36 AM,64.4,62.6,94,29.98,6.0,SSE,6.9,-,N/A,,Mostly Cloudy,150,2014-02-19 14:36:00
8:53 AM,68.0,62.1,81,29.97,10.0,SSE,12.7,-,N/A,,Partly Cloudy,150,2014-02-19 14:53:00
9:53 AM,72.0,61.0,68,29.97,10.0,SSE,11.5,17.3,N/A,,Scattered Clouds,160,2014-02-19 15:53:00
10:44 AM,75.2,60.8,61,29.97,10.0,South,15.0,-,N/A,,Mostly Cloudy,180,2014-02-19 16:44:00
10:53 AM,75.0,60.1,60,29.96,10.0,South,15.0,-,N/A,,Scattered Clouds,180,2014-02-19 16:53:00
11:53 AM,75.9,59.0,56,29.95,10.0,SSW,11.5,-,N/A,,Mostly Cloudy,210,2014-02-19 17:53:00
12:53 PM,77.0,57.9,52,29.91,10.0,SSW,10.4,21.9,N/A,,Mostly Cloudy,200,2014-02-19 18:53:00
1:54 PM,78.1,59.0,52,29.88,10.0,South,12.7,-,N/A,,Unknown,190,2014-02-19 19:54:00
2:53 PM,78.1,59.0,52,29.85,10.0,SSW,15.0,23.0,N/A,,Mostly Cloudy,200,2014-02-19 20:53:00
3:53 PM,79.0,60.1,52,29.83,10.0,South,13.8,21.9,N/A,,Scattered Clouds,180,2014-02-19 21:53:00
4:53 PM,78.1,60.1,54,29.82,10.0,South,16.1,23.0,N/A,,Partly Cloudy,170,2014-02-19 22:53:00
5:53 PM,75.0,60.1,60,29.81,10.0,SSE,10.4,-,N/A,,Clear,160,2014-02-19 23:53:00
6:53 PM,73.0,61.0,66,29.82,10.0,South,12.7,20.7,N/A,,Clear,170,2014-02-20 00:53:00
7:53 PM,70.0,61.0,73,29.82,10.0,SSE,10.4,-,N/A,,Clear,160,2014-02-20 01:53:00
8:53 PM,69.1,61.0,75,29.82,10.0,SSE,12.7,-,N/A,,Scattered Clouds,160,2014-02-20 02:53:00
9:07 PM,69.8,60.8,73,29.83,10.0,SSE,15.0,-,N/A,,Mostly Cloudy,160,2014-02-20 03:07:00
9:53 PM,68.0,61.0,78,29.82,10.0,SSE,8.1,-,N/A,,Overcast,150,2014-02-20 03:53:00
10:53 PM,68.0,61.0,78,29.82,10.0,South,8.1,-,N/A,,Overcast,170,2014-02-20 04:53:00
11:53 PM,69.1,60.1,73,29.80,10.0,South,9.2,23.0,N/A,,Overcast,170,2014-02-20 05:53:00